sensor_id;sensor_type;location;lat;lon;timestamp;P1;durP1;ratioP1;P2;durP2;ratioP2
68310;SDS011;55157;51.036;17.058;2024-01-30T00:00:33;19.27;;;7.30;;
68310;SDS011;55157;51.036;17.058;2024-01-30T00:02:58;19.13;;;8.82;;
68310;SDS011;55157;51.036;17.058;2024-01-30T00:05:23;21.98;;;8.05;;
68310;SDS011;55157;51.036;17.058;2024-01-30T00:07:48;20.48;;;9.43;;
68310;SDS011;55157;51.036;17.058;2024-01-30T00:10:14;18.83;;;8.52;;
68310;SDS011;55157;51.036;17.058;2024-01-30T00:12:41;16.20;;;8.15;;
68310;SDS011;55157;51.036;17.058;2024-01-30T00:15:06;18.92;;;9.27;;
68310;SDS011;55157;51.036;17.058;2024-01-30T00:17:31;16.98;;;8.32;;
68310;SDS011;55157;51.036;17.058;2024-01-30T00:19:57;19.73;;;7.70;;
68310;SDS011;55157;51.036;17.058;2024-01-30T00:22:22;15.43;;;7.63;;
68310;SDS011;55157;51.036;17.058;2024-01-30T00:24:47;24.70;;;6.32;;
68310;SDS011;55157;51.036;17.058;2024-01-30T00:27:12;18.83;;;6.13;;
68310;SDS011;55157;51.036;17.058;2024-01-30T00:29:39;18.85;;;7.80;;
68310;SDS011;55157;51.036;17.058;2024-01-30T00:32:05;21.73;;;7.07;;
68310;SDS011;55157;51.036;17.058;2024-01-30T00:34:30;13.50;;;6.30;;
68310;SDS011;55157;51.036;17.058;2024-01-30T00:36:55;15.45;;;6.85;;
68310;SDS011;55157;51.036;17.058;2024-01-30T00:39:20;13.90;;;6.70;;
68310;SDS011;55157;51.036;17.058;2024-01-30T00:41:46;16.88;;;6.45;;
68310;SDS011;55157;51.036;17.058;2024-01-30T00:44:11;12.50;;;6.70;;
68310;SDS011;55157;51.036;17.058;2024-01-30T00:46:38;15.52;;;7.22;;
68310;SDS011;55157;51.036;17.058;2024-01-30T00:49:03;13.30;;;6.78;;
68310;SDS011;55157;51.036;17.058;2024-01-30T00:51:28;12.23;;;6.85;;
68310;SDS011;55157;51.036;17.058;2024-01-30T00:53:53;16.80;;;7.30;;
68310;SDS011;55157;51.036;17.058;2024-01-30T00:56:18;11.68;;;6.72;;
68310;SDS011;55157;51.036;17.058;2024-01-30T00:58:44;18.35;;;7.90;;
68310;SDS011;55157;51.036;17.058;2024-01-30T01:01:09;20.58;;;8.07;;
68310;SDS011;55157;51.036;17.058;2024-01-30T01:03:36;23.27;;;7.75;;
68310;SDS011;55157;51.036;17.058;2024-01-30T01:06:01;15.40;;;7.43;;
68310;SDS011;55157;51.036;17.058;2024-01-30T01:08:26;16.67;;;6.97;;
68310;SDS011;55157;51.036;17.058;2024-01-30T01:10:51;17.92;;;7.82;;
68310;SDS011;55157;51.036;17.058;2024-01-30T01:13:17;16.52;;;7.80;;
68310;SDS011;55157;51.036;17.058;2024-01-30T01:15:42;16.50;;;6.55;;
68310;SDS011;55157;51.036;17.058;2024-01-30T01:18:08;15.65;;;7.25;;
68310;SDS011;55157;51.036;17.058;2024-01-30T01:20:34;12.63;;;7.43;;
68310;SDS011;55157;51.036;17.058;2024-01-30T01:22:59;15.63;;;7.65;;
68310;SDS011;55157;51.036;17.058;2024-01-30T01:25:25;16.70;;;7.38;;
68310;SDS011;55157;51.036;17.058;2024-01-30T01:27:50;16.73;;;7.18;;
68310;SDS011;55157;51.036;17.058;2024-01-30T01:30:15;14.70;;;7.32;;
68310;SDS011;55157;51.036;17.058;2024-01-30T01:32:41;17.05;;;7.65;;
68310;SDS011;55157;51.036;17.058;2024-01-30T01:35:06;12.48;;;6.88;;
68310;SDS011;55157;51.036;17.058;2024-01-30T01:37:35;13.27;;;7.38;;
68310;SDS011;55157;51.036;17.058;2024-01-30T01:40:00;13.52;;;6.60;;
68310;SDS011;55157;51.036;17.058;2024-01-30T01:42:26;15.85;;;8.02;;
68310;SDS011;55157;51.036;17.058;2024-01-30T01:44:51;12.95;;;6.93;;
68310;SDS011;55157;51.036;17.058;2024-01-30T01:47:16;14.32;;;7.53;;
68310;SDS011;55157;51.036;17.058;2024-01-30T01:49:41;13.23;;;6.93;;
68310;SDS011;55157;51.036;17.058;2024-01-30T01:52:07;14.27;;;6.90;;
68310;SDS011;55157;51.036;17.058;2024-01-30T01:54:34;12.48;;;6.88;;
68310;SDS011;55157;51.036;17.058;2024-01-30T01:56:59;13.25;;;7.60;;
68310;SDS011;55157;51.036;17.058;2024-01-30T01:59:24;13.32;;;7.72;;
68310;SDS011;55157;51.036;17.058;2024-01-30T02:01:50;12.57;;;6.63;;
68310;SDS011;55157;51.036;17.058;2024-01-30T02:04:16;14.60;;;6.75;;
68310;SDS011;55157;51.036;17.058;2024-01-30T02:06:41;15.68;;;8.45;;
68310;SDS011;55157;51.036;17.058;2024-01-30T02:09:07;27.08;;;8.80;;
68310;SDS011;55157;51.036;17.058;2024-01-30T02:11:34;20.55;;;10.48;;
68310;SDS011;55157;51.036;17.058;2024-01-30T02:14:02;20.23;;;9.35;;
68310;SDS011;55157;51.036;17.058;2024-01-30T02:16:27;19.95;;;9.05;;
68310;SDS011;55157;51.036;17.058;2024-01-30T02:18:52;24.75;;;9.40;;
68310;SDS011;55157;51.036;17.058;2024-01-30T02:21:19;19.55;;;8.98;;
68310;SDS011;55157;51.036;17.058;2024-01-30T02:23:44;21.42;;;10.27;;
68310;SDS011;55157;51.036;17.058;2024-01-30T02:26:11;22.23;;;10.50;;
68310;SDS011;55157;51.036;17.058;2024-01-30T02:28:36;23.55;;;10.95;;
68310;SDS011;55157;51.036;17.058;2024-01-30T02:31:02;21.02;;;10.30;;
68310;SDS011;55157;51.036;17.058;2024-01-30T02:33:27;30.15;;;11.80;;
68310;SDS011;55157;51.036;17.058;2024-01-30T02:35:52;28.23;;;13.30;;
68310;SDS011;55157;51.036;17.058;2024-01-30T02:38:19;32.13;;;14.27;;
68310;SDS011;55157;51.036;17.058;2024-01-30T02:40:44;34.67;;;15.20;;
68310;SDS011;55157;51.036;17.058;2024-01-30T02:43:10;34.85;;;16.25;;
68310;SDS011;55157;51.036;17.058;2024-01-30T02:45:36;32.00;;;14.20;;
68310;SDS011;55157;51.036;17.058;2024-01-30T02:48:01;34.13;;;17.20;;
68310;SDS011;55157;51.036;17.058;2024-01-30T02:50:26;45.10;;;18.13;;
68310;SDS011;55157;51.036;17.058;2024-01-30T02:52:51;41.17;;;20.75;;
68310;SDS011;55157;51.036;17.058;2024-01-30T02:55:18;67.05;;;30.20;;
68310;SDS011;55157;51.036;17.058;2024-01-30T02:57:43;64.63;;;30.30;;
68310;SDS011;55157;51.036;17.058;2024-01-30T03:00:09;66.20;;;27.85;;
68310;SDS011;55157;51.036;17.058;2024-01-30T03:02:35;59.97;;;26.13;;
68310;SDS011;55157;51.036;17.058;2024-01-30T03:05:00;51.40;;;21.52;;
68310;SDS011;55157;51.036;17.058;2024-01-30T03:07:25;47.45;;;20.92;;
68310;SDS011;55157;51.036;17.058;2024-01-30T03:09:50;50.20;;;22.15;;
68310;SDS011;55157;51.036;17.058;2024-01-30T03:12:17;39.33;;;17.80;;
68310;SDS011;55157;51.036;17.058;2024-01-30T03:14:42;36.20;;;17.73;;
68310;SDS011;55157;51.036;17.058;2024-01-30T03:17:07;38.08;;;17.88;;
68310;SDS011;55157;51.036;17.058;2024-01-30T03:19:33;39.08;;;17.88;;
68310;SDS011;55157;51.036;17.058;2024-01-30T03:21:58;34.25;;;16.83;;
68310;SDS011;55157;51.036;17.058;2024-01-30T03:24:23;36.10;;;17.70;;
68310;SDS011;55157;51.036;17.058;2024-01-30T03:26:48;36.30;;;16.05;;
68310;SDS011;55157;51.036;17.058;2024-01-30T03:29:15;35.75;;;16.67;;
68310;SDS011;55157;51.036;17.058;2024-01-30T03:31:40;38.42;;;16.83;;
68310;SDS011;55157;51.036;17.058;2024-01-30T03:34:06;37.65;;;17.70;;
68310;SDS011;55157;51.036;17.058;2024-01-30T03:36:31;31.95;;;14.90;;
68310;SDS011;55157;51.036;17.058;2024-01-30T03:38:56;31.77;;;14.63;;
68310;SDS011;55157;51.036;17.058;2024-01-30T03:41:21;35.88;;;13.82;;
68310;SDS011;55157;51.036;17.058;2024-01-30T03:43:46;38.55;;;15.43;;
68310;SDS011;55157;51.036;17.058;2024-01-30T03:46:13;30.92;;;13.80;;
68310;SDS011;55157;51.036;17.058;2024-01-30T03:48:38;35.72;;;13.43;;
68310;SDS011;55157;51.036;17.058;2024-01-30T03:51:04;35.47;;;14.82;;
68310;SDS011;55157;51.036;17.058;2024-01-30T03:53:29;31.20;;;13.48;;
68310;SDS011;55157;51.036;17.058;2024-01-30T03:55:54;27.40;;;12.55;;
68310;SDS011;55157;51.036;17.058;2024-01-30T03:58:20;26.83;;;13.18;;
68310;SDS011;55157;51.036;17.058;2024-01-30T04:00:45;31.73;;;13.15;;
68310;SDS011;55157;51.036;17.058;2024-01-30T04:03:11;26.95;;;11.73;;
68310;SDS011;55157;51.036;17.058;2024-01-30T04:05:37;28.17;;;12.02;;
68310;SDS011;55157;51.036;17.058;2024-01-30T04:08:02;31.05;;;14.35;;
68310;SDS011;55157;51.036;17.058;2024-01-30T04:10:27;30.45;;;12.27;;
68310;SDS011;55157;51.036;17.058;2024-01-30T04:12:53;28.98;;;14.05;;
68310;SDS011;55157;51.036;17.058;2024-01-30T04:15:18;28.90;;;13.73;;
68310;SDS011;55157;51.036;17.058;2024-01-30T04:17:43;29.65;;;15.20;;
68310;SDS011;55157;51.036;17.058;2024-01-30T04:20:13;39.28;;;16.17;;
68310;SDS011;55157;51.036;17.058;2024-01-30T04:22:38;43.17;;;19.25;;
68310;SDS011;55157;51.036;17.058;2024-01-30T04:25:04;43.78;;;19.73;;
68310;SDS011;55157;51.036;17.058;2024-01-30T04:27:29;41.80;;;17.23;;
68310;SDS011;55157;51.036;17.058;2024-01-30T04:29:54;38.38;;;17.23;;
68310;SDS011;55157;51.036;17.058;2024-01-30T04:32:19;42.88;;;16.73;;
68310;SDS011;55157;51.036;17.058;2024-01-30T04:34:45;35.67;;;16.27;;
68310;SDS011;55157;51.036;17.058;2024-01-30T04:37:11;40.72;;;17.63;;
68310;SDS011;55157;51.036;17.058;2024-01-30T04:39:37;39.20;;;17.20;;
68310;SDS011;55157;51.036;17.058;2024-01-30T04:42:02;43.00;;;21.00;;
68310;SDS011;55157;51.036;17.058;2024-01-30T04:44:27;50.95;;;26.65;;
68310;SDS011;55157;51.036;17.058;2024-01-30T04:46:53;41.00;;;19.05;;
68310;SDS011;55157;51.036;17.058;2024-01-30T04:49:18;34.85;;;17.58;;
68310;SDS011;55157;51.036;17.058;2024-01-30T04:51:43;39.58;;;19.23;;
68310;SDS011;55157;51.036;17.058;2024-01-30T04:54:10;40.13;;;16.70;;
68310;SDS011;55157;51.036;17.058;2024-01-30T04:56:35;41.55;;;17.67;;
68310;SDS011;55157;51.036;17.058;2024-01-30T04:59:00;39.85;;;16.30;;
68310;SDS011;55157;51.036;17.058;2024-01-30T05:01:25;38.83;;;17.05;;
68310;SDS011;55157;51.036;17.058;2024-01-30T05:03:51;33.40;;;15.68;;
68310;SDS011;55157;51.036;17.058;2024-01-30T05:06:23;34.42;;;15.32;;
68310;SDS011;55157;51.036;17.058;2024-01-30T05:08:48;29.67;;;13.77;;
68310;SDS011;55157;51.036;17.058;2024-01-30T05:11:15;35.53;;;15.23;;
68310;SDS011;55157;51.036;17.058;2024-01-30T05:13:41;39.65;;;15.15;;
68310;SDS011;55157;51.036;17.058;2024-01-30T05:16:07;38.38;;;13.55;;
68310;SDS011;55157;51.036;17.058;2024-01-30T05:18:32;34.40;;;14.90;;
68310;SDS011;55157;51.036;17.058;2024-01-30T05:20:57;38.72;;;18.88;;
68310;SDS011;55157;51.036;17.058;2024-01-30T05:23:22;35.40;;;17.30;;
68310;SDS011;55157;51.036;17.058;2024-01-30T05:25:48;35.58;;;15.18;;
68310;SDS011;55157;51.036;17.058;2024-01-30T05:28:14;30.02;;;15.43;;
68310;SDS011;55157;51.036;17.058;2024-01-30T05:30:40;31.73;;;16.20;;
68310;SDS011;55157;51.036;17.058;2024-01-30T05:33:05;34.75;;;14.60;;
68310;SDS011;55157;51.036;17.058;2024-01-30T05:35:30;34.25;;;13.75;;
68310;SDS011;55157;51.036;17.058;2024-01-30T05:37:55;36.10;;;15.50;;
68310;SDS011;55157;51.036;17.058;2024-01-30T05:40:21;29.00;;;14.32;;
68310;SDS011;55157;51.036;17.058;2024-01-30T05:42:46;36.50;;;14.52;;
68310;SDS011;55157;51.036;17.058;2024-01-30T05:45:13;37.53;;;15.18;;
68310;SDS011;55157;51.036;17.058;2024-01-30T05:47:38;36.38;;;14.95;;
68310;SDS011;55157;51.036;17.058;2024-01-30T05:50:04;32.22;;;15.52;;
68310;SDS011;55157;51.036;17.058;2024-01-30T05:52:29;34.83;;;15.55;;
68310;SDS011;55157;51.036;17.058;2024-01-30T05:54:54;32.10;;;15.40;;
68310;SDS011;55157;51.036;17.058;2024-01-30T05:57:20;29.73;;;14.55;;
68310;SDS011;55157;51.036;17.058;2024-01-30T05:59:45;31.80;;;14.93;;
68310;SDS011;55157;51.036;17.058;2024-01-30T06:02:12;32.92;;;16.13;;
68310;SDS011;55157;51.036;17.058;2024-01-30T06:04:37;37.70;;;16.50;;
68310;SDS011;55157;51.036;17.058;2024-01-30T06:07:02;29.20;;;13.98;;
68310;SDS011;55157;51.036;17.058;2024-01-30T06:09:27;34.42;;;15.05;;
68310;SDS011;55157;51.036;17.058;2024-01-30T06:11:53;32.13;;;15.05;;
68310;SDS011;55157;51.036;17.058;2024-01-30T06:14:18;33.03;;;14.18;;
68310;SDS011;55157;51.036;17.058;2024-01-30T06:16:43;28.98;;;12.43;;
68310;SDS011;55157;51.036;17.058;2024-01-30T06:19:10;26.40;;;13.32;;
68310;SDS011;55157;51.036;17.058;2024-01-30T06:21:35;28.45;;;13.52;;
68310;SDS011;55157;51.036;17.058;2024-01-30T06:24:00;27.30;;;14.00;;
68310;SDS011;55157;51.036;17.058;2024-01-30T06:26:26;33.70;;;16.35;;
68310;SDS011;55157;51.036;17.058;2024-01-30T06:28:51;35.85;;;15.25;;
68310;SDS011;55157;51.036;17.058;2024-01-30T06:31:16;32.78;;;14.45;;
68310;SDS011;55157;51.036;17.058;2024-01-30T06:33:41;28.08;;;12.65;;
68310;SDS011;55157;51.036;17.058;2024-01-30T06:36:08;29.27;;;13.32;;
68310;SDS011;55157;51.036;17.058;2024-01-30T06:38:33;24.52;;;13.60;;
68310;SDS011;55157;51.036;17.058;2024-01-30T06:40:59;27.00;;;13.85;;
68310;SDS011;55157;51.036;17.058;2024-01-30T06:43:24;28.35;;;12.85;;
68310;SDS011;55157;51.036;17.058;2024-01-30T06:45:49;22.92;;;11.25;;
68310;SDS011;55157;51.036;17.058;2024-01-30T06:48:14;131.30;;;55.00;;
68310;SDS011;55157;51.036;17.058;2024-01-30T06:50:40;68.60;;;26.58;;
68310;SDS011;55157;51.036;17.058;2024-01-30T06:53:06;52.33;;;20.67;;
68310;SDS011;55157;51.036;17.058;2024-01-30T06:55:32;39.75;;;17.70;;
68310;SDS011;55157;51.036;17.058;2024-01-30T06:57:57;36.40;;;16.83;;
68310;SDS011;55157;51.036;17.058;2024-01-30T07:00:22;38.22;;;17.73;;
68310;SDS011;55157;51.036;17.058;2024-01-30T07:02:47;36.67;;;20.08;;
68310;SDS011;55157;51.036;17.058;2024-01-30T07:05:13;63.40;;;32.40;;
68310;SDS011;55157;51.036;17.058;2024-01-30T07:07:38;46.10;;;24.33;;
68310;SDS011;55157;51.036;17.058;2024-01-30T07:10:05;66.55;;;30.40;;
68310;SDS011;55157;51.036;17.058;2024-01-30T07:12:31;129.57;;;38.40;;
68310;SDS011;55157;51.036;17.058;2024-01-30T07:14:56;57.72;;;20.75;;
68310;SDS011;55157;51.036;17.058;2024-01-30T07:17:21;112.05;;;34.55;;
68310;SDS011;55157;51.036;17.058;2024-01-30T07:19:46;178.50;;;45.85;;
68310;SDS011;55157;51.036;17.058;2024-01-30T07:22:12;64.47;;;17.70;;
68310;SDS011;55157;51.036;17.058;2024-01-30T07:24:41;52.90;;;16.63;;
68310;SDS011;55157;51.036;17.058;2024-01-30T07:27:08;41.90;;;13.82;;
68310;SDS011;55157;51.036;17.058;2024-01-30T07:29:33;58.75;;;17.33;;
68310;SDS011;55157;51.036;17.058;2024-01-30T07:31:58;85.50;;;25.27;;
68310;SDS011;55157;51.036;17.058;2024-01-30T07:34:24;65.68;;;20.67;;
68310;SDS011;55157;51.036;17.058;2024-01-30T07:36:49;68.25;;;21.60;;
68310;SDS011;55157;51.036;17.058;2024-01-30T07:39:14;71.57;;;22.67;;
68310;SDS011;55157;51.036;17.058;2024-01-30T07:41:39;69.03;;;19.55;;
68310;SDS011;55157;51.036;17.058;2024-01-30T07:44:06;55.20;;;15.43;;
68310;SDS011;55157;51.036;17.058;2024-01-30T07:46:31;34.83;;;11.82;;
68310;SDS011;55157;51.036;17.058;2024-01-30T07:48:56;40.65;;;13.57;;
68310;SDS011;55157;51.036;17.058;2024-01-30T07:51:22;42.97;;;12.85;;
68310;SDS011;55157;51.036;17.058;2024-01-30T07:53:47;39.53;;;11.43;;
68310;SDS011;55157;51.036;17.058;2024-01-30T07:56:12;28.65;;;9.88;;
68310;SDS011;55157;51.036;17.058;2024-01-30T07:58:37;26.80;;;9.38;;
68310;SDS011;55157;51.036;17.058;2024-01-30T08:01:04;29.10;;;9.73;;
68310;SDS011;55157;51.036;17.058;2024-01-30T08:03:30;28.08;;;8.65;;
68310;SDS011;55157;51.036;17.058;2024-01-30T08:05:55;28.45;;;8.40;;
68310;SDS011;55157;51.036;17.058;2024-01-30T08:08:20;29.58;;;8.93;;
68310;SDS011;55157;51.036;17.058;2024-01-30T08:10:45;24.40;;;9.38;;
68310;SDS011;55157;51.036;17.058;2024-01-30T08:13:10;27.73;;;10.35;;
68310;SDS011;55157;51.036;17.058;2024-01-30T08:15:36;24.60;;;8.88;;
68310;SDS011;55157;51.036;17.058;2024-01-30T08:18:05;22.13;;;8.13;;
68310;SDS011;55157;51.036;17.058;2024-01-30T08:20:30;28.00;;;10.32;;
68310;SDS011;55157;51.036;17.058;2024-01-30T08:22:55;24.35;;;10.45;;
68310;SDS011;55157;51.036;17.058;2024-01-30T08:25:21;30.23;;;11.13;;
68310;SDS011;55157;51.036;17.058;2024-01-30T08:27:46;26.00;;;9.10;;
68310;SDS011;55157;51.036;17.058;2024-01-30T08:30:11;30.23;;;10.93;;
68310;SDS011;55157;51.036;17.058;2024-01-30T08:32:37;25.27;;;9.75;;
68310;SDS011;55157;51.036;17.058;2024-01-30T08:35:04;28.00;;;9.65;;
68310;SDS011;55157;51.036;17.058;2024-01-30T08:37:29;21.20;;;8.68;;
68310;SDS011;55157;51.036;17.058;2024-01-30T08:39:54;23.58;;;9.55;;
68310;SDS011;55157;51.036;17.058;2024-01-30T08:42:19;23.00;;;7.93;;
68310;SDS011;55157;51.036;17.058;2024-01-30T08:44:44;24.92;;;8.75;;
68310;SDS011;55157;51.036;17.058;2024-01-30T08:47:10;18.23;;;7.15;;
68310;SDS011;55157;51.036;17.058;2024-01-30T08:49:35;15.48;;;7.03;;
68310;SDS011;55157;51.036;17.058;2024-01-30T08:52:02;23.10;;;9.68;;
68310;SDS011;55157;51.036;17.058;2024-01-30T08:54:27;23.73;;;8.77;;
68310;SDS011;55157;51.036;17.058;2024-01-30T08:56:52;26.50;;;10.30;;
68310;SDS011;55157;51.036;17.058;2024-01-30T08:59:17;12.50;;;6.80;;
68310;SDS011;55157;51.036;17.058;2024-01-30T09:01:43;17.55;;;8.05;;
68310;SDS011;55157;51.036;17.058;2024-01-30T09:04:08;18.80;;;7.28;;
68310;SDS011;55157;51.036;17.058;2024-01-30T09:06:33;12.80;;;6.55;;
68310;SDS011;55157;51.036;17.058;2024-01-30T09:09:00;15.52;;;5.93;;
68310;SDS011;55157;51.036;17.058;2024-01-30T09:11:25;17.02;;;6.10;;
68310;SDS011;55157;51.036;17.058;2024-01-30T09:13:50;15.98;;;6.43;;
68310;SDS011;55157;51.036;17.058;2024-01-30T09:16:15;13.32;;;6.22;;
68310;SDS011;55157;51.036;17.058;2024-01-30T09:18:41;11.98;;;6.03;;
68310;SDS011;55157;51.036;17.058;2024-01-30T09:21:06;13.23;;;5.47;;
68310;SDS011;55157;51.036;17.058;2024-01-30T09:23:32;12.40;;;6.10;;
68310;SDS011;55157;51.036;17.058;2024-01-30T09:25:58;10.27;;;5.47;;
68310;SDS011;55157;51.036;17.058;2024-01-30T09:28:24;22.88;;;8.90;;
68310;SDS011;55157;51.036;17.058;2024-01-30T09:30:49;13.25;;;7.20;;
68310;SDS011;55157;51.036;17.058;2024-01-30T09:33:14;11.52;;;6.68;;
68310;SDS011;55157;51.036;17.058;2024-01-30T09:35:40;20.00;;;8.90;;
68310;SDS011;55157;51.036;17.058;2024-01-30T09:38:05;15.27;;;6.70;;
68310;SDS011;55157;51.036;17.058;2024-01-30T09:40:30;17.60;;;6.70;;
68310;SDS011;55157;51.036;17.058;2024-01-30T09:42:57;12.20;;;5.55;;
68310;SDS011;55157;51.036;17.058;2024-01-30T09:45:24;16.08;;;7.53;;
68310;SDS011;55157;51.036;17.058;2024-01-30T09:47:49;18.40;;;7.78;;
68310;SDS011;55157;51.036;17.058;2024-01-30T09:50:15;36.53;;;16.63;;
68310;SDS011;55157;51.036;17.058;2024-01-30T09:52:41;29.27;;;12.38;;
68310;SDS011;55157;51.036;17.058;2024-01-30T09:55:07;20.60;;;11.20;;
68310;SDS011;55157;51.036;17.058;2024-01-30T09:57:34;17.27;;;8.55;;
68310;SDS011;55157;51.036;17.058;2024-01-30T10:00:01;17.25;;;9.23;;
68310;SDS011;55157;51.036;17.058;2024-01-30T10:02:26;17.20;;;8.45;;
68310;SDS011;55157;51.036;17.058;2024-01-30T10:04:51;17.60;;;8.93;;
68310;SDS011;55157;51.036;17.058;2024-01-30T10:07:17;10.73;;;6.13;;
68310;SDS011;55157;51.036;17.058;2024-01-30T10:09:43;10.45;;;6.05;;
68310;SDS011;55157;51.036;17.058;2024-01-30T10:12:08;14.40;;;6.28;;
68310;SDS011;55157;51.036;17.058;2024-01-30T10:14:34;13.20;;;5.53;;
68310;SDS011;55157;51.036;17.058;2024-01-30T10:17:01;14.18;;;7.97;;
68310;SDS011;55157;51.036;17.058;2024-01-30T10:19:26;21.35;;;6.78;;
68310;SDS011;55157;51.036;17.058;2024-01-30T10:21:52;17.08;;;8.23;;
68310;SDS011;55157;51.036;17.058;2024-01-30T10:24:17;14.05;;;6.30;;
68310;SDS011;55157;51.036;17.058;2024-01-30T10:26:43;18.85;;;8.07;;
68310;SDS011;55157;51.036;17.058;2024-01-30T10:29:08;30.35;;;13.18;;
68310;SDS011;55157;51.036;17.058;2024-01-30T10:31:33;21.65;;;9.18;;
68310;SDS011;55157;51.036;17.058;2024-01-30T10:34:00;27.45;;;10.13;;
68310;SDS011;55157;51.036;17.058;2024-01-30T10:36:27;43.92;;;15.00;;
68310;SDS011;55157;51.036;17.058;2024-01-30T10:38:53;40.83;;;12.23;;
68310;SDS011;55157;51.036;17.058;2024-01-30T10:41:21;40.42;;;12.68;;
68310;SDS011;55157;51.036;17.058;2024-01-30T10:43:50;22.80;;;8.88;;
68310;SDS011;55157;51.036;17.058;2024-01-30T10:46:19;24.13;;;9.15;;
68310;SDS011;55157;51.036;17.058;2024-01-30T10:48:46;39.83;;;15.30;;
68310;SDS011;55157;51.036;17.058;2024-01-30T10:51:16;26.67;;;11.13;;
68310;SDS011;55157;51.036;17.058;2024-01-30T10:53:42;43.20;;;15.95;;
68310;SDS011;55157;51.036;17.058;2024-01-30T10:56:08;48.58;;;13.95;;
68310;SDS011;55157;51.036;17.058;2024-01-30T10:58:35;40.63;;;13.02;;
68310;SDS011;55157;51.036;17.058;2024-01-30T11:01:00;31.88;;;11.90;;
68310;SDS011;55157;51.036;17.058;2024-01-30T11:03:26;29.98;;;11.25;;
68310;SDS011;55157;51.036;17.058;2024-01-30T11:05:51;23.13;;;8.75;;
68310;SDS011;55157;51.036;17.058;2024-01-30T11:08:23;27.00;;;9.98;;
68310;SDS011;55157;51.036;17.058;2024-01-30T11:10:49;26.15;;;8.73;;
68310;SDS011;55157;51.036;17.058;2024-01-30T11:13:14;52.85;;;16.27;;
68310;SDS011;55157;51.036;17.058;2024-01-30T11:15:40;33.70;;;11.23;;
68310;SDS011;55157;51.036;17.058;2024-01-30T11:18:05;28.80;;;11.02;;
68310;SDS011;55157;51.036;17.058;2024-01-30T11:20:31;27.00;;;10.65;;
68310;SDS011;55157;51.036;17.058;2024-01-30T11:22:56;18.17;;;7.85;;
68310;SDS011;55157;51.036;17.058;2024-01-30T11:25:23;27.65;;;9.55;;
68310;SDS011;55157;51.036;17.058;2024-01-30T11:27:50;32.42;;;9.93;;
68310;SDS011;55157;51.036;17.058;2024-01-30T11:30:21;30.65;;;11.02;;
68310;SDS011;55157;51.036;17.058;2024-01-30T11:32:46;32.15;;;11.73;;
68310;SDS011;55157;51.036;17.058;2024-01-30T11:35:22;39.30;;;12.55;;
68310;SDS011;55157;51.036;17.058;2024-01-30T11:37:47;28.80;;;12.10;;
68310;SDS011;55157;51.036;17.058;2024-01-30T11:40:13;43.75;;;11.38;;
68310;SDS011;55157;51.036;17.058;2024-01-30T11:42:40;27.23;;;10.88;;
68310;SDS011;55157;51.036;17.058;2024-01-30T11:45:06;20.17;;;9.35;;
68310;SDS011;55157;51.036;17.058;2024-01-30T11:47:34;21.63;;;9.98;;
68310;SDS011;55157;51.036;17.058;2024-01-30T11:49:59;30.13;;;10.45;;
68310;SDS011;55157;51.036;17.058;2024-01-30T11:52:24;22.85;;;8.85;;
68310;SDS011;55157;51.036;17.058;2024-01-30T11:54:50;25.70;;;9.75;;
68310;SDS011;55157;51.036;17.058;2024-01-30T11:57:15;23.27;;;8.55;;
68310;SDS011;55157;51.036;17.058;2024-01-30T11:59:41;20.35;;;9.45;;
68310;SDS011;55157;51.036;17.058;2024-01-30T12:02:07;21.70;;;9.00;;
68310;SDS011;55157;51.036;17.058;2024-01-30T12:04:32;21.77;;;8.20;;
68310;SDS011;55157;51.036;17.058;2024-01-30T12:06:57;27.58;;;9.77;;
68310;SDS011;55157;51.036;17.058;2024-01-30T12:09:22;16.52;;;8.02;;
68310;SDS011;55157;51.036;17.058;2024-01-30T12:11:48;16.77;;;8.00;;
68310;SDS011;55157;51.036;17.058;2024-01-30T12:14:13;17.73;;;8.73;;
68310;SDS011;55157;51.036;17.058;2024-01-30T12:16:41;20.98;;;8.73;;
68310;SDS011;55157;51.036;17.058;2024-01-30T12:19:06;16.83;;;8.82;;
68310;SDS011;55157;51.036;17.058;2024-01-30T12:21:31;11.50;;;5.95;;
68310;SDS011;55157;51.036;17.058;2024-01-30T12:23:56;16.25;;;8.07;;
68310;SDS011;55157;51.036;17.058;2024-01-30T12:26:22;16.20;;;6.97;;
68310;SDS011;55157;51.036;17.058;2024-01-30T12:28:47;19.33;;;7.05;;
68310;SDS011;55157;51.036;17.058;2024-01-30T12:31:13;12.45;;;6.95;;
68310;SDS011;55157;51.036;17.058;2024-01-30T12:33:39;12.50;;;6.50;;
68310;SDS011;55157;51.036;17.058;2024-01-30T12:36:05;13.85;;;6.68;;
68310;SDS011;55157;51.036;17.058;2024-01-30T12:38:30;22.40;;;7.07;;
68310;SDS011;55157;51.036;17.058;2024-01-30T12:40:56;12.27;;;6.50;;
68310;SDS011;55157;51.036;17.058;2024-01-30T12:43:21;17.23;;;6.72;;
68310;SDS011;55157;51.036;17.058;2024-01-30T12:45:46;13.85;;;5.32;;
68310;SDS011;55157;51.036;17.058;2024-01-30T12:48:12;15.15;;;7.68;;
68310;SDS011;55157;51.036;17.058;2024-01-30T12:50:38;17.13;;;7.20;;
68310;SDS011;55157;51.036;17.058;2024-01-30T12:53:03;28.27;;;8.18;;
68310;SDS011;55157;51.036;17.058;2024-01-30T12:55:29;13.52;;;6.45;;
68310;SDS011;55157;51.036;17.058;2024-01-30T12:57:54;16.15;;;8.02;;
68310;SDS011;55157;51.036;17.058;2024-01-30T13:00:19;13.02;;;5.78;;
68310;SDS011;55157;51.036;17.058;2024-01-30T13:02:45;9.43;;;4.90;;
68310;SDS011;55157;51.036;17.058;2024-01-30T13:05:10;18.38;;;6.35;;
68310;SDS011;55157;51.036;17.058;2024-01-30T13:07:37;15.77;;;7.60;;
68310;SDS011;55157;51.036;17.058;2024-01-30T13:10:02;21.25;;;8.98;;
68310;SDS011;55157;51.036;17.058;2024-01-30T13:12:27;19.00;;;8.57;;
68310;SDS011;55157;51.036;17.058;2024-01-30T13:14:53;15.02;;;6.85;;
68310;SDS011;55157;51.036;17.058;2024-01-30T13:17:18;14.40;;;7.72;;
68310;SDS011;55157;51.036;17.058;2024-01-30T13:19:43;16.30;;;8.73;;
68310;SDS011;55157;51.036;17.058;2024-01-30T13:22:08;16.95;;;8.90;;
68310;SDS011;55157;51.036;17.058;2024-01-30T13:24:35;18.52;;;7.30;;
68310;SDS011;55157;51.036;17.058;2024-01-30T13:27:00;14.75;;;6.82;;
68310;SDS011;55157;51.036;17.058;2024-01-30T13:29:25;13.23;;;7.30;;
68310;SDS011;55157;51.036;17.058;2024-01-30T13:31:51;22.40;;;12.23;;
68310;SDS011;55157;51.036;17.058;2024-01-30T13:34:16;21.80;;;11.10;;
68310;SDS011;55157;51.036;17.058;2024-01-30T13:36:41;19.65;;;11.05;;
68310;SDS011;55157;51.036;17.058;2024-01-30T13:39:06;24.40;;;12.65;;
68310;SDS011;55157;51.036;17.058;2024-01-30T13:41:33;15.15;;;8.70;;
68310;SDS011;55157;51.036;17.058;2024-01-30T13:43:58;33.17;;;10.52;;
68310;SDS011;55157;51.036;17.058;2024-01-30T13:46:23;32.92;;;14.57;;
68310;SDS011;55157;51.036;17.058;2024-01-30T13:48:49;36.55;;;15.30;;
68310;SDS011;55157;51.036;17.058;2024-01-30T13:51:14;24.83;;;11.40;;
68310;SDS011;55157;51.036;17.058;2024-01-30T13:53:39;15.60;;;7.60;;
68310;SDS011;55157;51.036;17.058;2024-01-30T13:56:05;30.98;;;13.40;;
68310;SDS011;55157;51.036;17.058;2024-01-30T13:58:31;23.02;;;9.95;;
68310;SDS011;55157;51.036;17.058;2024-01-30T14:00:57;15.75;;;9.80;;
68310;SDS011;55157;51.036;17.058;2024-01-30T14:03:22;18.45;;;8.57;;
68310;SDS011;55157;51.036;17.058;2024-01-30T14:05:47;21.95;;;9.95;;